You are not logged in, Click here to log in
機場資訊:LTBA Welcome to Taiwan Airways 台灣虛擬航空
ICAO: LTBA Country: 土耳其 位於伊斯坦堡市中心西南15公里
Latitude: 40.9761 Longitude: 28.8142
Total Arrivals: 21 Total Departures: 20
Latest Arrival: K6T93 (HECA-LTBA)Jason. Li Latest Departure: TK1861K (LTBA-LIRF)Jason. Li
Scenery:
METAR : LTBA 170520Z 03007KT CAVOK 16/14 Q1021 NOSIG RMK RWY17L 03006KT RWY05 03008KT RWY23 05007KT

阿塔圖克國際機場IST